• Join FlightAware (Why Join?)
  • Login
  • US Flag 
08:34AM EDT


 

Airport Tracker/Info


-or-


 

Live Flight TrackerFlight Track Log ✈ UAL1006 ✈ 13-Jun-2013 ✈ SKBO / BOG - KIAH

Flight Track Log - Related Links

Times and Time Zones

All times are in EDT time to prevent confusion due to time zone crossing. See the UAL1006 flight status page for this flight to view local times or setup timezone preferences in your user account.

Time Position Orientation Groundspeed Altitude Reporting Facility
EDT Latitude Longitude Course Direction KTS MPH feet Rate Location/Type
01:48AM 6.9496 -75.5999 327° Northwest  Level FlightAware Approximate
01:49AM 7.0515 -75.6671 327° Northwest  Level FlightAware Approximate
01:50AM 7.1534 -75.7345 327° Northwest  Level FlightAware Approximate
01:51AM 7.2554 -75.8018 327° Northwest  Level FlightAware Approximate
01:52AM 7.3573 -75.8692 327° Northwest  Level FlightAware Approximate
01:53AM 7.4592 -75.9366 327° Northwest  Level FlightAware Approximate
01:54AM 7.5610 -76.0040 327° Northwest  Level FlightAware Approximate
01:55AM 7.6629 -76.0715 327° Northwest  Level FlightAware Approximate
01:56AM 7.7648 -76.1390 327° Northwest  Level FlightAware Approximate
01:57AM 7.8667 -76.2066 327° Northwest  Level FlightAware Approximate
01:58AM 7.9685 -76.2741 327° Northwest  Level FlightAware Approximate
01:59AM 8.0703 -76.3417 327° Northwest  Level FlightAware Approximate
02:00AM 8.1722 -76.4094 327° Northwest  Level FlightAware Approximate
02:01AM 8.2740 -76.4770 327° Northwest  Level FlightAware Approximate
02:02AM 8.3758 -76.5447 327° Northwest  Level FlightAware Approximate
02:03AM 8.4776 -76.6125 327° Northwest  Level FlightAware Approximate
02:04AM 8.5794 -76.6803 327° Northwest  Level FlightAware Approximate
02:05AM 8.6812 -76.7481 327° Northwest  Level FlightAware Approximate
02:06AM 8.7829 -76.8159 327° Northwest  Level FlightAware Approximate
02:07AM 8.8847 -76.8838 327° Northwest  Level FlightAware Approximate
02:08AM 8.9864 -76.9517 327° Northwest  Level FlightAware Approximate
02:09AM 9.0881 -77.0197 327° Northwest  Level FlightAware Approximate
02:10AM 9.1899 -77.0877 327° Northwest  Level FlightAware Approximate
02:11AM 9.2920 -77.1552 327° Northwest  Level FlightAware Approximate
02:12AM 9.3940 -77.2227 327° Northwest  Level FlightAware Approximate
02:13AM 9.4960 -77.2903 327° Northwest  Level FlightAware Approximate
02:14AM 9.5980 -77.3579 327° Northwest  Level FlightAware Approximate
02:15AM 9.7000 -77.4256 327° Northwest  Level FlightAware Approximate
02:16AM 9.8020 -77.4933 327° Northwest  Level FlightAware Approximate
02:17AM 9.9040 -77.5610 327° Northwest  Level FlightAware Approximate
02:18AM 10.0059 -77.6288 327° Northwest  Level FlightAware Approximate
02:19AM 10.1079 -77.6966 327° Northwest  Level FlightAware Approximate
02:20AM 10.2098 -77.7645 327° Northwest  Level FlightAware Approximate
02:21AM 10.3117 -77.8324 327° Northwest  Level FlightAware Approximate
02:22AM 10.4136 -77.9004 327° Northwest  Level FlightAware Approximate
02:23AM 10.5155 -77.9684 327° Northwest  Level FlightAware Approximate
02:24AM 10.6174 -78.0364 327° Northwest  Level FlightAware Approximate
02:24AM 9.0700 -79.4100 327° Northwest 457 526 36,000  Level FlightAware
02:25AM 10.7192 -78.1045 327° Northwest  Level FlightAware Approximate
02:25AM 9.1340 -79.4520 327° Northwest 457 526 36,000  Level FlightAware
02:26AM 9.2130 -79.5030 327° Northwest 456 525 36,000  Level FlightAware
02:26AM 9.2790 -79.5450 328° Northwest 455 524 36,000  Level FlightAware
02:27AM 9.3660 -79.6010 328° Northwest 456 525 36,000  Level FlightAware
02:28AM 9.4350 -79.6460 327° Northwest 455 524 36,000  Level FlightAware
02:28AM 9.5070 -79.6930 327° Northwest 447 514 36,000  Level FlightAware
02:29AM 9.5870 -79.7440 328° Northwest 447 514 36,000  Level FlightAware
02:30AM 9.6590 -79.7910 327° Northwest 455 524 36,000  Level FlightAware
02:31AM 9.7380 -79.8420 328° Northwest 454 522 36,000  Level FlightAware
02:31AM 9.8070 -79.8870 327° Northwest 447 514 36,000  Level FlightAware
02:32AM 9.8800 -79.9340 328° Northwest 445 512 36,000  Level FlightAware
02:33AM 9.9600 -79.9860 327° Northwest 446 513 36,000  Level FlightAware
02:33AM 10.0300 -80.0310 328° Northwest 446 513 36,000  Level FlightAware
02:34AM 10.0980 -80.0760 327° Northwest 446 513 36,000  Level FlightAware
02:35AM 10.1550 -80.1150 326° Northwest 446 513 36,000  Level FlightAware
02:35AM 10.2480 -80.1730 328° Northwest 446 513 36,000  Level FlightAware
02:36AM 10.3240 -80.2230 327° Northwest 447 514 36,000  Level FlightAware
02:37AM 10.4390 -80.3000 327° Northwest 447 514 36,000  Level FlightAware
02:38AM 10.4910 -80.3360 326° Northwest 447 514 36,000  Level FlightAware
02:39AM 10.5800 -80.3970 326° Northwest 447 514 36,000  Level FlightAware
02:40AM 10.6320 -80.4330 326° Northwest 447 514 36,000  Level FlightAware
02:40AM 10.7020 -80.4810 326° Northwest 447 514 36,000  Level FlightAware
02:41AM 10.8420 -80.5600 331° Northwest 457 526 36,000  Level FlightAware
02:42AM 10.9130 -80.6070 327° Northwest 463 533 36,000  Level FlightAware
02:42AM 10.9680 -80.6430 327° Northwest 463 533 36,000  Level FlightAware
02:43AM 11.0420 -80.6920 327° Northwest 463 533 36,000  Level FlightAware
02:44AM 11.1320 -80.7510 327° Northwest 463 533 36,000  Level FlightAware
02:45AM 11.1880 -80.7890 326° Northwest 463 533 36,000  Level FlightAware
02:46AM 11.2830 -80.8510 327° Northwest 463 533 36,000  Level FlightAware
02:46AM 11.3380 -80.8880 327° Northwest 463 533 36,000  Level FlightAware
02:47AM 11.4110 -80.9360 327° Northwest 463 533 36,000  Level FlightAware
02:48AM 11.4660 -80.9730 327° Northwest 463 533 36,000  Level FlightAware
02:49AM 11.5390 -81.0210 327° Northwest 463 533 36,000  Level FlightAware
02:49AM 11.5960 -81.0590 327° Northwest 463 533 36,000  Level FlightAware
02:50AM 11.6750 -81.1110 327° Northwest 463 533 36,000  Level FlightAware
02:51AM 11.7490 -81.1600 327° Northwest 463 533 36,000  Level FlightAware
02:54AM 12.0143 -81.3409 326° Northwest  Level Estimated
02:55AM 12.1156 -81.4101 326° Northwest  Level Estimated
02:56AM 12.2170 -81.4793 326° Northwest  Level Estimated
02:57AM 12.3183 -81.5487 326° Northwest  Level Estimated
02:58AM 12.4196 -81.6180 326° Northwest  Level Estimated
02:59AM 12.5209 -81.6874 326° Northwest  Level Estimated
03:00AM 12.6221 -81.7569 326° Northwest  Level Estimated
03:01AM 12.7234 -81.8264 326° Northwest  Level Estimated
03:02AM 12.8246 -81.8960 326° Northwest  Level Estimated
03:03AM 12.9258 -81.9657 326° Northwest  Level Estimated
03:04AM 13.0270 -82.0354 326° Northwest  Level Estimated
03:05AM 13.1282 -82.1051 326° Northwest  Level Estimated
03:06AM 13.2293 -82.1750 326° Northwest  Level Estimated
03:07AM 13.3305 -82.2448 326° Northwest  Level Estimated
03:08AM 13.4316 -82.3148 326° Northwest  Level Estimated
03:09AM 13.5327 -82.3848 326° Northwest  Level Estimated
03:10AM 13.6337 -82.4548 326° Northwest  Level Estimated
03:11AM 13.7348 -82.5249 326° Northwest  Level Estimated
03:12AM 13.8358 -82.5951 326° Northwest  Level Estimated
03:13AM 13.9369 -82.6653 326° Northwest  Level Estimated
03:14AM 14.0379 -82.7356 326° Northwest  Level Estimated
03:15AM 14.1388 -82.8060 326° Northwest  Level Estimated
03:16AM 14.2398 -82.8764 326° Northwest  Level Estimated
03:17AM 14.3407 -82.9469 326° Northwest  Level Estimated
03:18AM 14.4416 -83.0174 326° Northwest  Level Estimated
03:19AM 14.5425 -83.0880 326° Northwest  Level Estimated
03:20AM 14.6434 -83.1587 326° Northwest  Level Estimated
03:21AM 14.7443 -83.2294 326° Northwest  Level Estimated
03:22AM 14.8451 -83.3002 326° Northwest  Level Estimated
03:23AM 14.9459 -83.3711 326° Northwest  Level Estimated
03:24AM 15.0467 -83.4420 326° Northwest  Level Estimated
03:25AM 15.1474 -83.5130 326° Northwest  Level Estimated
03:26AM 15.2482 -83.5841 326° Northwest  Level Estimated
03:27AM 15.3489 -83.6553 326° Northwest  Level Estimated
03:28AM 15.4496 -83.7265 326° Northwest  Level Estimated
03:29AM 15.5503 -83.7978 326° Northwest  Level Estimated
03:30AM 15.6509 -83.8691 326° Northwest  Level Estimated
03:31AM 15.7515 -83.9405 326° Northwest  Level Estimated
03:32AM 15.8521 -84.0120 326° Northwest  Level Estimated
03:33AM 15.9527 -84.0836 326° Northwest  Level Estimated
03:34AM 16.0533 -84.1552 326° Northwest  Level Estimated
03:35AM 16.1538 -84.2269 326° Northwest  Level Estimated
03:36AM 16.2543 -84.2987 326° Northwest  Level Estimated
03:37AM 16.3548 -84.3705 326° Northwest  Level Estimated
03:38AM 16.4553 -84.4425 326° Northwest  Level Estimated
03:39AM 16.5557 -84.5145 326° Northwest  Level Estimated
03:40AM 16.6561 -84.5865 325° Northwest  Level Estimated
03:41AM 16.7565 -84.6587 325° Northwest  Level Estimated
03:42AM 16.8569 -84.7309 325° Northwest  Level Estimated
03:43AM 16.9572 -84.8032 325° Northwest  Level Estimated
03:44AM 17.0575 -84.8756 325° Northwest  Level Estimated
03:45AM 17.1578 -84.9480 325° Northwest  Level Estimated
03:46AM 17.2581 -85.0206 325° Northwest  Level Estimated
03:47AM 17.3583 -85.0932 325° Northwest  Level Estimated
03:48AM 17.4585 -85.1659 325° Northwest  Level Estimated
03:49AM 17.5587 -85.2387 325° Northwest  Level Estimated
03:50AM 17.6588 -85.3115 325° Northwest  Level Estimated
03:51AM 17.7590 -85.3845 325° Northwest  Level Estimated
03:52AM 17.8591 -85.4575 325° Northwest  Level Estimated
03:53AM 17.9592 -85.5306 325° Northwest  Level Estimated
03:54AM 18.0592 -85.6038 325° Northwest  Level Estimated
03:55AM 18.1592 -85.6770 325° Northwest  Level Estimated
03:56AM 18.2592 -85.7504 325° Northwest  Level Estimated
03:57AM 18.3592 -85.8238 325° Northwest  Level Estimated
03:57AM 18.5570 -85.7240 325° Northwest 419 482 38,000  Level FlightAware
03:58AM 18.4591 -85.8973 325° Northwest  Level Estimated
03:58AM 18.6270 -85.7670 330° Northwest 418 481 38,000  Level FlightAware
03:58AM 18.6970 -85.8090 330° Northwest 418 481 38,000  Level FlightAware
03:59AM 18.7680 -85.8520 330° Northwest 418 481 38,000  Level FlightAware
04:00AM 18.8370 -85.8930 331° Northwest 420 483 38,000  Level FlightAware
04:01AM 18.9110 -85.9380 330° Northwest 420 483 38,000  Level FlightAware
04:01AM 18.9840 -85.9830 330° Northwest 422 486 38,000  Level FlightAware
04:02AM 19.0600 -86.0280 331° Northwest 423 487 38,000  Level FlightAware
04:03AM 19.1290 -86.0700 330° Northwest 423 487 38,000  Level FlightAware
04:03AM 19.2000 -86.1130 330° Northwest 423 487 38,000  Level FlightAware
04:04AM 19.2630 -86.1510 330° Northwest 424 488 38,000  Level FlightAware
04:05AM 19.3440 -86.2010 330° Northwest 424 488 38,000  Level FlightAware
04:06AM 19.4410 -86.2600 330° Northwest 426 490 38,000  Level FlightAware
04:06AM 19.5090 -86.3010 330° Northwest 426 490 38,000  Level FlightAware
04:07AM 19.5820 -86.3450 330° Northwest 429 494 38,000  Level FlightAware
04:08AM 19.6570 -86.3910 330° Northwest 431 496 38,000  Level FlightAware
04:09AM 19.7300 -86.4350 330° Northwest 431 496 38,000  Level FlightAware
04:09AM 19.7990 -86.4770 330° Northwest 427 491 38,000  Level FlightAware
04:10AM 19.8680 -86.5200 330° Northwest 425 489 38,000  Level FlightAware
04:11AM 19.9940 -86.5970 330° Northwest 423 487 38,000  Level FlightAware
04:12AM 20.0650 -86.6400 330° Northwest 423 487 38,000  Level FlightAware
04:12AM 20.1340 -86.6820 330° Northwest 421 484 38,000  Level FlightAware
04:13AM 20.2070 -86.7270 330° Northwest 419 482 38,000  Level FlightAware
04:14AM 20.2770 -86.7700 330° Northwest 417 480 38,000  Level FlightAware
04:15AM 20.3450 -86.8120 330° Northwest 414 476 38,000  Level FlightAware
04:15AM 20.4180 -86.8570 330° Northwest 414 476 38,000  Level FlightAware
04:16AM 20.4840 -86.8980 330° Northwest 414 476 38,000  Level FlightAware
04:17AM 20.5550 -86.9450 328° Northwest 416 479 38,000  Level FlightAware
04:17AM 20.6180 -86.9910 326° Northwest 420 483 38,000  Level FlightAware
04:18AM 20.6910 -87.0420 327° Northwest 420 483 38,000  Level FlightAware
04:19AM 20.7560 -87.0890 326° Northwest 419 482 38,000  Level FlightAware
04:19AM 20.8250 -87.1380 326° Northwest 419 482 38,000  Level FlightAware
04:20AM 20.8940 -87.1880 326° Northwest 421 484 38,000  Level FlightAware
04:21AM 20.9810 -87.2500 326° Northwest 422 486 38,000  Level FlightAware
04:22AM 21.0530 -87.3010 327° Northwest 422 486 38,000  Level FlightAware
04:22AM 21.1180 -87.3480 326° Northwest 422 486 38,000  Level FlightAware
04:23AM 21.1900 -87.4000 326° Northwest 422 486 38,000  Level FlightAware
04:24AM 21.2510 -87.4440 326° Northwest 421 484 38,000  Level FlightAware
04:25AM 21.3260 -87.4980 326° Northwest 419 482 38,000  Level FlightAware
04:25AM 21.3910 -87.5450 326° Northwest 418 481 38,000  Level FlightAware
04:26AM 21.4480 -87.5860 326° Northwest 417 480 38,000  Level FlightAware
04:27AM 21.5090 -87.6300 326° Northwest 416 479 38,000  Level FlightAware
04:27AM 21.5800 -87.6810 326° Northwest 415 478 38,000  Level FlightAware
04:28AM 21.6470 -87.7300 326° Northwest 414 476 38,000  Level FlightAware
04:29AM 21.7130 -87.7780 326° Northwest 413 475 38,000  Level FlightAware
04:29AM 21.7790 -87.8260 326° Northwest 414 476 38,000  Level FlightAware
04:31AM 21.8820 -87.9010 326° Northwest 413 475 38,000  Level FlightAware
04:32AM 21.9760 -87.9710 325° Northwest 412 474 38,000  Level FlightAware
04:32AM 22.0500 -88.0260 325° Northwest 411 473 38,000  Level FlightAware
04:33AM 22.1010 -88.0650 325° Northwest 412 474 38,000  Level FlightAware
04:34AM 22.1740 -88.1190 326° Northwest 412 474 38,000  Level FlightAware
04:34AM 22.2470 -88.1720 326° Northwest 414 476 38,000  Level FlightAware
04:35AM 22.3050 -88.2150 326° Northwest 415 478 38,000  Level FlightAware
04:36AM 22.3780 -88.2680 326° Northwest 415 478 38,000  Level FlightAware
04:37AM 22.4540 -88.3230 326° Northwest 414 476 38,000  Level FlightAware
04:37AM 22.5320 -88.3820 325° Northwest 411 473 38,000  Level FlightAware
04:38AM 22.5800 -88.4180 325° Northwest 411 473 38,000  Level FlightAware
04:39AM 22.6680 -88.4810 327° Northwest 409 471 38,000  Level FlightAware
04:40AM 22.4100 -88.2910 146° Southeast 407 468 38,000  Level FlightAware
04:41AM 22.7960 -88.5750 326° Northwest 406 467 38,000  Level FlightAware
04:41AM 22.8630 -88.6250 325° Northwest 405 466 38,000  Level FlightAware
04:42AM 22.9290 -88.6740 326° Northwest 403 464 38,000  Level FlightAware
04:43AM 23.0030 -88.7280 326° Northwest 401 461 38,000  Level FlightAware
04:44AM 23.0930 -88.7950 326° Northwest 400 460 38,000  Level FlightAware
04:44AM 23.1560 -88.8420 326° Northwest 400 460 38,000  Level FlightAware
04:45AM 23.2220 -88.8910 326° Northwest 400 460 38,000  Level FlightAware
04:46AM 23.2770 -88.9320 326° Northwest 401 461 38,000  Level FlightAware
04:47AM 23.3480 -88.9850 326° Northwest 401 461 38,000  Level FlightAware
04:47AM 23.4080 -89.0300 325° Northwest 401 461 38,000  Level FlightAware
04:48AM 23.4740 -89.0790 326° Northwest 401 461 38,000  Level FlightAware
04:49AM 23.5540 -89.1390 325° Northwest 403 464 38,000  Level FlightAware
04:50AM 23.6240 -89.1910 326° Northwest 406 467 38,000  Level FlightAware
04:50AM 23.6930 -89.2430 325° Northwest 408 470 38,000  Level FlightAware
04:51AM 23.7610 -89.2940 326° Northwest 411 473 38,000  Level FlightAware
04:52AM 23.8040 -89.3270 325° Northwest 411 473 38,000  Level FlightAware
04:52AM 23.8820 -89.3860 325° Northwest 413 475 38,000  Level FlightAware
04:53AM 23.9610 -89.4450 326° Northwest 414 476 38,000  Level FlightAware
04:54AM 24.0180 -89.4880 325° Northwest 414 476 38,000  Level FlightAware
04:54AM 24.0900 -89.5410 326° Northwest 413 475 38,000  Level FlightAware
04:55AM 24.1390 -89.5790 325° Northwest 412 474 38,000  Level FlightAware
04:56AM 24.2260 -89.6440 326° Northwest 413 475 38,000  Level FlightAware
04:57AM 24.2890 -89.6910 326° Northwest 412 474 38,000  Level FlightAware
04:57AM 24.3430 -89.7320 325° Northwest 411 473 38,000  Level FlightAware
04:58AM 24.4130 -89.7850 325° Northwest 411 473 38,000  Level FlightAware
04:59AM 24.4790 -89.8350 325° Northwest 411 473 38,000  Level FlightAware
04:59AM 24.5260 -89.8720 324° Northwest 411 473 38,000  Level FlightAware
05:00AM 24.5750 -89.9100 325° Northwest 411 473 38,000  Level FlightAware
05:01AM 24.6400 -89.9600 325° Northwest 411 473 38,000  Level FlightAware
05:01AM 24.6880 -89.9960 326° Northwest 411 473 38,000  Level FlightAware
05:02AM 24.7510 -90.0450 325° Northwest 411 473 38,000  Level FlightAware
05:03AM 24.7990 -90.0820 325° Northwest 411 473 38,000  Level FlightAware
05:04AM 24.8630 -90.1310 325° Northwest 411 473 38,000  Level FlightAware
05:04AM 24.9100 -90.1680 324° Northwest 411 473 38,000  Level FlightAware
05:05AM 24.9590 -90.2060 325° Northwest 411 473 38,000  Level FlightAware
05:05AM 25.0080 -90.2440 325° Northwest 411 473 38,000  Level FlightAware
05:06AM 25.0730 -90.2940 325° Northwest 411 473 38,000  Level FlightAware
05:07AM 25.1210 -90.3310 325° Northwest 411 473 38,000  Level FlightAware
05:08AM 25.1840 -90.3800 325° Northwest 411 473 38,000 -60 Level FlightAware
05:10AM 25.3662 -90.5206 325° Northwest  Level FlightAware Approximate
05:11AM 25.4621 -90.5947 325° Northwest  Level FlightAware Approximate
05:12AM 25.5579 -90.6690 325° Northwest  Level FlightAware Approximate
05:13AM 25.6536 -90.7434 325° Northwest  Level FlightAware Approximate
05:14AM 25.7494 -90.8179 325° Northwest  Level FlightAware Approximate
05:15AM 25.8451 -90.8924 325° Northwest  Level FlightAware Approximate
05:16AM 25.9412 -90.9665 325° Northwest  Level FlightAware Approximate
05:17AM 26.0372 -91.0407 325° Northwest  Level FlightAware Approximate
05:18AM 26.1332 -91.1150 325° Northwest  Level FlightAware Approximate
05:19AM 26.2292 -91.1894 325° Northwest  Level FlightAware Approximate
05:20AM 26.3251 -91.2640 325° Northwest  Level FlightAware Approximate
05:20AM 26.5306 -91.4414 325° Northwest 407 468 37,900  Level Houston Center
05:21AM 26.4207 -91.3392 325° Northwest  Level FlightAware Approximate
05:21AM 26.6258 -91.5147 325° Northwest 410 472 37,900  Level Houston Center
05:22AM 26.5161 -91.4146 325° Northwest  Level FlightAware Approximate
05:22AM 26.7319 -91.5944 326° Northwest 408 470 37,900  Level Houston Center
05:23AM 26.6115 -91.4902 325° Northwest  Level FlightAware Approximate
05:23AM 26.8008 -91.6725 315° West 418 481 37,900  Level Houston Center
05:24AM 26.7069 -91.5659 325° Northwest  Level FlightAware Approximate
05:24AM 26.8942 -91.7642 319° Northwest 420 483 37,900  Level Houston Center
05:25AM 26.8022 -91.6418 325° Northwest  Level FlightAware Approximate
05:29AM 27.3643 -92.2402 319° Northwest 419 482 38,000  Level FlightAware ADS-B
05:32AM 27.6171 -92.4984 318° Northwest 420 483 38,000  Level FlightAware ADS-B
05:33AM 27.6607 -92.5432 318° Northwest 420 483 38,000  Level FlightAware ADS-B
05:33AM 27.7055 -92.5892 318° Northwest 420 483 38,000  Level FlightAware ADS-B
05:34AM 27.7497 -92.6347 318° Northwest 422 486 38,000  Level FlightAware ADS-B
05:34AM 27.7934 -92.6797 318° Northwest 422 486 38,000  Level FlightAware ADS-B
05:35AM 27.8383 -92.7260 318° Northwest 423 487 38,000  Level FlightAware ADS-B
05:35AM 27.8966 -92.7861 318° Northwest 425 489 38,000  Level FlightAware ADS-B
05:36AM 27.9419 -92.8330 318° Northwest 425 489 38,000  Level FlightAware ADS-B
05:37AM 28.0354 -92.9297 318° Northwest 425 489 38,000 -60 Level FlightAware ADS-B
05:38AM 28.1064 -93.0025 318° Northwest 426 490 37,900 -60 Descending Houston Center
05:39AM 28.1939 -93.0933 318° Northwest 427 491 37,900  Level Houston Center
05:40AM 28.2814 -93.1850 317° Northwest 428 493 37,900  Level Houston Center
05:41AM 28.3800 -93.2911 317° Northwest 428 493 38,000  Climbing Houston Center
05:42AM 28.4672 -93.3817 318° Northwest 426 490 38,000  Level Houston Center
05:43AM 28.5539 -93.4719 318° Northwest 425 489 38,000 -1,920 Level Houston Center
05:49AM 29.0590 -94.0060 318° Northwest 435 501 25,400 -1,980 Descending FlightAware
05:50AM 29.1360 -94.0900 316° Northwest 435 501 24,900 -300 Descending FlightAware
05:51AM 29.2060 -94.1670 316° Northwest 435 501 24,900 -3,960 Level FlightAware
05:51AM 29.2744 -94.2355 319° Northwest 423 487 19,200 -6,900 Descending FlightAware ADS-B
05:52AM 29.3169 -94.2810 317° Northwest 415 478 18,000 -2,880 Descending FlightAware ADS-B
05:52AM 29.3597 -94.3268 317° Northwest 420 483 16,300 -3,000 Descending FlightAware ADS-B
05:53AM 29.4021 -94.3725 317° Northwest 415 478 15,000 -2,640 Descending FlightAware ADS-B
05:53AM 29.4439 -94.4176 317° Northwest 405 466 13,700 -2,520 Descending FlightAware ADS-B
05:54AM 29.4843 -94.4613 317° Northwest 394 453 12,500 -2,400 Descending FlightAware ADS-B
05:54AM 29.5237 -94.5037 317° Northwest 383 441 11,300 -1,980 Descending FlightAware ADS-B
05:55AM 29.5618 -94.5450 317° Northwest 361 415 10,500 -1,140 Descending FlightAware ADS-B
05:55AM 29.5974 -94.5835 317° Northwest 349 402 10,200 -660 Descending FlightAware ADS-B
05:55AM 29.6163 -94.6041 317° Northwest 351 404 10,000 -600 Descending FlightAware ADS-B
05:56AM 29.6345 -94.6236 317° Northwest 351 404 9,900 -240 Descending FlightAware ADS-B
05:56AM 29.6522 -94.6428 317° Northwest 349 402 9,900  Level FlightAware ADS-B
05:56AM 29.6699 -94.6619 317° Northwest 348 400 9,900  Level FlightAware ADS-B
05:56AM 29.6873 -94.6807 317° Northwest 329 379 9,900 -240 Level FlightAware ADS-B
05:57AM 29.7034 -94.6983 316° Northwest 313 360 9,800 -600 Descending FlightAware ADS-B
05:57AM 29.7190 -94.7153 317° Northwest 301 346 9,600 -1,200 Descending FlightAware ADS-B
05:57AM 29.7345 -94.7320 317° Northwest 299 344 9,200 -1,620 Descending FlightAware ADS-B
05:58AM 29.7647 -94.7647 317° Northwest 295 339 8,400 -1,620 Descending FlightAware ADS-B
05:58AM 29.7800 -94.7813 317° Northwest 294 338 8,000 -1,560 Descending FlightAware ADS-B
05:58AM 29.7952 -94.7979 317° Northwest 291 335 7,600 -1,560 Descending FlightAware ADS-B
05:58AM 29.8101 -94.8143 316° Northwest 287 330 7,200 -1,440 Descending FlightAware ADS-B
05:59AM 29.8386 -94.8455 316° Northwest 282 325 6,500 -1,500 Descending FlightAware ADS-B
05:59AM 29.8527 -94.8610 316° Northwest 280 322 6,100 -1,440 Descending FlightAware ADS-B
05:59AM 29.8670 -94.8765 317° Northwest 279 321 5,800 -1,500 Descending FlightAware ADS-B
06:00AM 29.8789 -94.8896 316° Northwest 278 320 5,400 -1,680 Descending FlightAware ADS-B
06:00AM 29.9073 -94.9206 316° Northwest 278 320 4,600 -1,560 Descending FlightAware ADS-B
06:00AM 29.9199 -94.9343 317° Northwest 278 320 4,300 -1,320 Descending FlightAware ADS-B
06:01AM 29.9340 -94.9496 317° Northwest 277 319 4,000 -780 Descending FlightAware ADS-B
06:01AM 29.9687 -94.9876 316° Northwest 252 290 3,600 -720 Descending FlightAware ADS-B
06:01AM 29.9723 -94.9930 308° West 250 288 3,500 -1,380 Descending FlightAware ADS-B
06:01AM 29.9745 -94.9976 299° West 248 285 3,400 -780 Descending FlightAware ADS-B
06:01AM 29.9759 -95.0022 289° West 246 283 3,400 -780 Level FlightAware ADS-B
06:01AM 29.9769 -95.0069 284° West 244 281 3,300 -1,200 Descending FlightAware ADS-B
06:02AM 29.9777 -95.0148 275° West 241 277 3,200 -900 Descending FlightAware ADS-B
06:02AM 29.9780 -95.0257 270° West 237 273 3,100 -780 Descending FlightAware ADS-B
06:02AM 29.9774 -95.0567 268° West 228 262 2,800 -600 Descending FlightAware ADS-B
06:02AM 29.9774 -95.0749 270° West 224 258 2,700 -540 Descending FlightAware ADS-B
06:03AM 29.9775 -95.1111 270° West 216 249 2,400 -600 Descending FlightAware ADS-B
06:03AM 29.9775 -95.1460 270° West 203 234 2,100 -600 Descending FlightAware ADS-B
06:04AM 29.9775 -95.1562 270° West 199 229 2,000 -480 Descending FlightAware ADS-B
06:04AM 29.9775 -95.1723 270° West 191 220 1,900 -600 Descending FlightAware ADS-B
06:04AM 29.9778 -95.1878 271° West 184 212 1,700 -600 Descending FlightAware ADS-B
06:04AM 29.9782 -95.2027 272° West 183 211 1,600 -540 Descending FlightAware ADS-B
06:05AM 29.9780 -95.2102 268° West 163 188 1,500 -420 Descending FlightAware ADS-B
06:05AM 29.9779 -95.2153 269° West 160 184 1,500 -480 Level FlightAware ADS-B
06:05AM 29.9778 -95.2214 269° West 149 171 1,400 -900 Descending FlightAware ADS-B
06:05AM 29.9776 -95.2320 269° West 148 170 1,200 -900 Descending FlightAware ADS-B
06:05AM 29.9776 -95.2420 270° West 149 171 1,000 -1,140 Descending FlightAware ADS-B
06:05AM 29.9776 -95.2496 270° West 148 170 800 -840 Descending FlightAware ADS-B
06:05AM 29.9775 -95.2538 268° West 148 170 800 -540 Level FlightAware ADS-B
06:06AM 29.9775 -95.2588 270° West 149 171 700 -660 Descending FlightAware ADS-B
06:06AM 29.9776 -95.2697 271° West 149 171 600 -660 Descending FlightAware ADS-B
06:06AM 29.9776 -95.2818 270° West 151 174 400 -780 Descending FlightAware ADS-B
06:06AM 29.9776 -95.2941 270° West 152 175 200 -840 Descending FlightAware ADS-B